sensor_id;sensor_type;location;lat;lon;timestamp;P1;durP1;ratioP1;P2;durP2;ratioP2
13683;SDS011;6914;53.552;9.908;2023-07-13T00:01:13;7.23;;;4.37;;
13683;SDS011;6914;53.552;9.908;2023-07-13T00:03:41;7.13;;;3.50;;
13683;SDS011;6914;53.552;9.908;2023-07-13T00:06:08;5.87;;;4.03;;
13683;SDS011;6914;53.552;9.908;2023-07-13T00:08:36;16.00;;;4.00;;
13683;SDS011;6914;53.552;9.908;2023-07-13T00:11:04;4.33;;;3.50;;
13683;SDS011;6914;53.552;9.908;2023-07-13T00:13:31;4.97;;;4.10;;
13683;SDS011;6914;53.552;9.908;2023-07-13T00:15:59;5.90;;;4.70;;
13683;SDS011;6914;53.552;9.908;2023-07-13T00:18:27;12.73;;;3.83;;
13683;SDS011;6914;53.552;9.908;2023-07-13T00:20:55;6.37;;;4.37;;
13683;SDS011;6914;53.552;9.908;2023-07-13T00:23:29;5.80;;;3.40;;
13683;SDS011;6914;53.552;9.908;2023-07-13T00:26:01;13.00;;;4.80;;
13683;SDS011;6914;53.552;9.908;2023-07-13T00:28:28;5.47;;;4.27;;
13683;SDS011;6914;53.552;9.908;2023-07-13T00:30:55;8.03;;;4.70;;
13683;SDS011;6914;53.552;9.908;2023-07-13T00:33:22;4.80;;;4.30;;
13683;SDS011;6914;53.552;9.908;2023-07-13T00:35:50;5.17;;;4.67;;
13683;SDS011;6914;53.552;9.908;2023-07-13T00:38:17;10.40;;;6.70;;
13683;SDS011;6914;53.552;9.908;2023-07-13T00:40:44;6.93;;;6.03;;
13683;SDS011;6914;53.552;9.908;2023-07-13T00:43:13;8.00;;;5.13;;
13683;SDS011;6914;53.552;9.908;2023-07-13T00:48:29;7.67;;;5.53;;
13683;SDS011;6914;53.552;9.908;2023-07-13T00:50:57;6.53;;;5.93;;
13683;SDS011;6914;53.552;9.908;2023-07-13T00:53:26;8.43;;;6.43;;
13683;SDS011;6914;53.552;9.908;2023-07-13T00:55:54;8.20;;;5.60;;
13683;SDS011;6914;53.552;9.908;2023-07-13T00:58:23;11.80;;;5.43;;
13683;SDS011;6914;53.552;9.908;2023-07-13T01:00:51;14.47;;;6.20;;
13683;SDS011;6914;53.552;9.908;2023-07-13T01:03:18;6.03;;;5.53;;
13683;SDS011;6914;53.552;9.908;2023-07-13T01:05:46;13.87;;;6.87;;
13683;SDS011;6914;53.552;9.908;2023-07-13T01:08:13;9.63;;;6.10;;
13683;SDS011;6914;53.552;9.908;2023-07-13T01:10:40;7.13;;;6.53;;
13683;SDS011;6914;53.552;9.908;2023-07-13T01:13:08;9.20;;;6.10;;
13683;SDS011;6914;53.552;9.908;2023-07-13T01:15:39;12.97;;;6.70;;
13683;SDS011;6914;53.552;9.908;2023-07-13T01:18:07;9.00;;;7.50;;
13683;SDS011;6914;53.552;9.908;2023-07-13T01:20:35;10.10;;;6.83;;
13683;SDS011;6914;53.552;9.908;2023-07-13T01:23:08;6.83;;;6.23;;
13683;SDS011;6914;53.552;9.908;2023-07-13T01:25:35;6.97;;;6.47;;
13683;SDS011;6914;53.552;9.908;2023-07-13T01:28:03;6.73;;;5.90;;
13683;SDS011;6914;53.552;9.908;2023-07-13T01:30:31;10.53;;;5.50;;
13683;SDS011;6914;53.552;9.908;2023-07-13T01:32:58;6.53;;;6.10;;
13683;SDS011;6914;53.552;9.908;2023-07-13T01:35:28;7.63;;;6.60;;
13683;SDS011;6914;53.552;9.908;2023-07-13T01:37:56;6.90;;;6.20;;
13683;SDS011;6914;53.552;9.908;2023-07-13T01:40:24;6.37;;;5.80;;
13683;SDS011;6914;53.552;9.908;2023-07-13T01:42:51;6.60;;;5.93;;
13683;SDS011;6914;53.552;9.908;2023-07-13T01:45:18;6.77;;;6.20;;
13683;SDS011;6914;53.552;9.908;2023-07-13T01:47:46;16.03;;;6.50;;
13683;SDS011;6914;53.552;9.908;2023-07-13T01:50:13;12.50;;;7.00;;
13683;SDS011;6914;53.552;9.908;2023-07-13T01:52:40;12.77;;;6.70;;
13683;SDS011;6914;53.552;9.908;2023-07-13T01:55:07;9.83;;;6.40;;
13683;SDS011;6914;53.552;9.908;2023-07-13T01:57:41;12.53;;;6.70;;
13683;SDS011;6914;53.552;9.908;2023-07-13T02:00:09;8.03;;;7.20;;
13683;SDS011;6914;53.552;9.908;2023-07-13T02:02:36;7.77;;;6.60;;
13683;SDS011;6914;53.552;9.908;2023-07-13T02:05:04;9.23;;;7.43;;
13683;SDS011;6914;53.552;9.908;2023-07-13T02:07:31;12.93;;;7.90;;
13683;SDS011;6914;53.552;9.908;2023-07-13T02:09:58;12.77;;;7.90;;
13683;SDS011;6914;53.552;9.908;2023-07-13T02:12:25;21.93;;;8.00;;
13683;SDS011;6914;53.552;9.908;2023-07-13T02:14:54;13.33;;;8.00;;
13683;SDS011;6914;53.552;9.908;2023-07-13T02:17:21;7.50;;;6.90;;
13683;SDS011;6914;53.552;9.908;2023-07-13T02:19:48;9.30;;;8.00;;
13683;SDS011;6914;53.552;9.908;2023-07-13T02:22:15;14.60;;;7.70;;
13683;SDS011;6914;53.552;9.908;2023-07-13T02:24:42;10.80;;;7.30;;
13683;SDS011;6914;53.552;9.908;2023-07-13T02:27:10;9.43;;;7.20;;
13683;SDS011;6914;53.552;9.908;2023-07-13T02:29:37;9.43;;;7.03;;
13683;SDS011;6914;53.552;9.908;2023-07-13T02:32:06;7.73;;;7.23;;
13683;SDS011;6914;53.552;9.908;2023-07-13T02:34:33;12.57;;;7.73;;
13683;SDS011;6914;53.552;9.908;2023-07-13T02:37:00;6.93;;;6.40;;
13683;SDS011;6914;53.552;9.908;2023-07-13T02:39:28;9.60;;;8.53;;
13683;SDS011;6914;53.552;9.908;2023-07-13T02:41:57;14.93;;;8.50;;
13683;SDS011;6914;53.552;9.908;2023-07-13T02:44:25;22.53;;;7.70;;
13683;SDS011;6914;53.552;9.908;2023-07-13T02:46:52;9.53;;;7.37;;
13683;SDS011;6914;53.552;9.908;2023-07-13T02:49:21;10.10;;;7.93;;
13683;SDS011;6914;53.552;9.908;2023-07-13T02:51:48;10.40;;;8.37;;
13683;SDS011;6914;53.552;9.908;2023-07-13T02:54:15;11.30;;;8.73;;
13683;SDS011;6914;53.552;9.908;2023-07-13T02:56:42;8.43;;;7.63;;
13683;SDS011;6914;53.552;9.908;2023-07-13T02:59:09;8.33;;;7.63;;
13683;SDS011;6914;53.552;9.908;2023-07-13T03:01:37;11.67;;;7.90;;
13683;SDS011;6914;53.552;9.908;2023-07-13T03:04:05;17.37;;;8.13;;
13683;SDS011;6914;53.552;9.908;2023-07-13T03:06:33;9.17;;;8.13;;
13683;SDS011;6914;53.552;9.908;2023-07-13T03:09:00;8.83;;;8.10;;
13683;SDS011;6914;53.552;9.908;2023-07-13T03:11:29;12.67;;;7.87;;
13683;SDS011;6914;53.552;9.908;2023-07-13T03:13:57;8.13;;;7.30;;
13683;SDS011;6914;53.552;9.908;2023-07-13T03:16:24;11.30;;;7.47;;
13683;SDS011;6914;53.552;9.908;2023-07-13T03:18:51;9.77;;;7.80;;
13683;SDS011;6914;53.552;9.908;2023-07-13T03:21:18;7.90;;;7.30;;
13683;SDS011;6914;53.552;9.908;2023-07-13T03:23:47;8.27;;;7.27;;
13683;SDS011;6914;53.552;9.908;2023-07-13T03:26:15;8.10;;;7.30;;
13683;SDS011;6914;53.552;9.908;2023-07-13T03:28:42;8.77;;;7.77;;
13683;SDS011;6914;53.552;9.908;2023-07-13T03:31:10;16.33;;;7.57;;
13683;SDS011;6914;53.552;9.908;2023-07-13T03:33:37;13.00;;;7.37;;
13683;SDS011;6914;53.552;9.908;2023-07-13T03:36:05;17.10;;;8.20;;
13683;SDS011;6914;53.552;9.908;2023-07-13T03:38:33;13.00;;;7.47;;
13683;SDS011;6914;53.552;9.908;2023-07-13T03:41:02;18.10;;;8.07;;
13683;SDS011;6914;53.552;9.908;2023-07-13T03:43:30;8.23;;;7.40;;
13683;SDS011;6914;53.552;9.908;2023-07-13T03:45:57;15.60;;;6.30;;
13683;SDS011;6914;53.552;9.908;2023-07-13T03:48:25;11.07;;;7.63;;
13683;SDS011;6914;53.552;9.908;2023-07-13T03:50:52;6.00;;;5.47;;
13683;SDS011;6914;53.552;9.908;2023-07-13T03:53:19;10.87;;;7.27;;
13683;SDS011;6914;53.552;9.908;2023-07-13T03:55:46;9.90;;;6.17;;
13683;SDS011;6914;53.552;9.908;2023-07-13T03:58:28;8.07;;;5.77;;
13683;SDS011;6914;53.552;9.908;2023-07-13T04:00:55;7.20;;;6.60;;
13683;SDS011;6914;53.552;9.908;2023-07-13T04:03:23;6.27;;;5.87;;
13683;SDS011;6914;53.552;9.908;2023-07-13T04:05:53;10.20;;;5.83;;
13683;SDS011;6914;53.552;9.908;2023-07-13T04:08:24;7.30;;;6.13;;
13683;SDS011;6914;53.552;9.908;2023-07-13T04:10:51;10.40;;;5.90;;
13683;SDS011;6914;53.552;9.908;2023-07-13T04:13:18;11.10;;;5.97;;
13683;SDS011;6914;53.552;9.908;2023-07-13T04:15:47;8.03;;;6.20;;
13683;SDS011;6914;53.552;9.908;2023-07-13T04:18:14;8.70;;;6.03;;
13683;SDS011;6914;53.552;9.908;2023-07-13T04:20:41;6.50;;;5.47;;
13683;SDS011;6914;53.552;9.908;2023-07-13T04:23:08;11.20;;;6.27;;
13683;SDS011;6914;53.552;9.908;2023-07-13T04:25:35;13.23;;;6.77;;
13683;SDS011;6914;53.552;9.908;2023-07-13T04:28:03;18.73;;;7.90;;
13683;SDS011;6914;53.552;9.908;2023-07-13T04:30:31;22.27;;;7.27;;
13683;SDS011;6914;53.552;9.908;2023-07-13T04:32:59;13.80;;;6.13;;
13683;SDS011;6914;53.552;9.908;2023-07-13T04:35:26;16.70;;;6.70;;
13683;SDS011;6914;53.552;9.908;2023-07-13T04:37:53;11.73;;;6.00;;
13683;SDS011;6914;53.552;9.908;2023-07-13T04:40:20;8.23;;;6.40;;
13683;SDS011;6914;53.552;9.908;2023-07-13T04:42:48;17.53;;;6.80;;
13683;SDS011;6914;53.552;9.908;2023-07-13T04:45:15;6.70;;;5.90;;
13683;SDS011;6914;53.552;9.908;2023-07-13T04:47:42;12.20;;;5.97;;
13683;SDS011;6914;53.552;9.908;2023-07-13T04:50:12;13.00;;;5.80;;
13683;SDS011;6914;53.552;9.908;2023-07-13T04:52:44;7.50;;;5.80;;
13683;SDS011;6914;53.552;9.908;2023-07-13T04:55:12;10.00;;;6.30;;
13683;SDS011;6914;53.552;9.908;2023-07-13T04:57:39;12.53;;;6.50;;
13683;SDS011;6914;53.552;9.908;2023-07-13T05:00:06;7.70;;;6.20;;
13683;SDS011;6914;53.552;9.908;2023-07-13T05:02:34;12.03;;;6.07;;
13683;SDS011;6914;53.552;9.908;2023-07-13T05:05:02;13.60;;;7.17;;
13683;SDS011;6914;53.552;9.908;2023-07-13T05:07:30;10.93;;;7.27;;
13683;SDS011;6914;53.552;9.908;2023-07-13T05:09:58;16.50;;;6.10;;
13683;SDS011;6914;53.552;9.908;2023-07-13T05:12:25;10.93;;;7.00;;
13683;SDS011;6914;53.552;9.908;2023-07-13T05:14:52;12.93;;;7.07;;
13683;SDS011;6914;53.552;9.908;2023-07-13T05:17:20;8.33;;;7.13;;
13683;SDS011;6914;53.552;9.908;2023-07-13T05:19:48;8.00;;;7.30;;
13683;SDS011;6914;53.552;9.908;2023-07-13T05:22:15;12.33;;;6.73;;
13683;SDS011;6914;53.552;9.908;2023-07-13T05:24:46;14.80;;;6.70;;
13683;SDS011;6914;53.552;9.908;2023-07-13T05:27:15;31.50;;;7.40;;
13683;SDS011;6914;53.552;9.908;2023-07-13T05:29:42;11.60;;;6.70;;
13683;SDS011;6914;53.552;9.908;2023-07-13T05:32:09;12.60;;;7.10;;
13683;SDS011;6914;53.552;9.908;2023-07-13T05:34:36;7.30;;;6.20;;
13683;SDS011;6914;53.552;9.908;2023-07-13T05:37:04;21.47;;;6.90;;
13683;SDS011;6914;53.552;9.908;2023-07-13T05:39:31;13.03;;;6.50;;
13683;SDS011;6914;53.552;9.908;2023-07-13T05:42:00;15.93;;;6.43;;
13683;SDS011;6914;53.552;9.908;2023-07-13T05:44:27;18.40;;;6.80;;
13683;SDS011;6914;53.552;9.908;2023-07-13T05:46:54;18.43;;;7.13;;
13683;SDS011;6914;53.552;9.908;2023-07-13T05:49:22;15.37;;;5.80;;
13683;SDS011;6914;53.552;9.908;2023-07-13T05:51:49;17.17;;;7.03;;
13683;SDS011;6914;53.552;9.908;2023-07-13T05:54:16;14.47;;;6.70;;
13683;SDS011;6914;53.552;9.908;2023-07-13T05:56:43;10.00;;;6.23;;
13683;SDS011;6914;53.552;9.908;2023-07-13T05:59:12;12.77;;;6.50;;
13683;SDS011;6914;53.552;9.908;2023-07-13T06:01:39;8.30;;;6.77;;
13683;SDS011;6914;53.552;9.908;2023-07-13T06:04:06;9.60;;;6.17;;
13683;SDS011;6914;53.552;9.908;2023-07-13T06:06:33;14.97;;;6.97;;
13683;SDS011;6914;53.552;9.908;2023-07-13T06:09:00;17.27;;;6.53;;
13683;SDS011;6914;53.552;9.908;2023-07-13T06:11:27;17.37;;;6.40;;
13683;SDS011;6914;53.552;9.908;2023-07-13T06:13:55;22.90;;;6.53;;
13683;SDS011;6914;53.552;9.908;2023-07-13T06:16:24;15.80;;;7.00;;
13683;SDS011;6914;53.552;9.908;2023-07-13T06:18:51;24.53;;;5.40;;
13683;SDS011;6914;53.552;9.908;2023-07-13T06:21:19;31.43;;;6.60;;
13683;SDS011;6914;53.552;9.908;2023-07-13T06:23:46;19.73;;;5.30;;
13683;SDS011;6914;53.552;9.908;2023-07-13T06:26:14;10.63;;;6.27;;
13683;SDS011;6914;53.552;9.908;2023-07-13T06:28:41;16.73;;;5.33;;
13683;SDS011;6914;53.552;9.908;2023-07-13T06:31:09;17.77;;;4.90;;
13683;SDS011;6914;53.552;9.908;2023-07-13T06:33:37;6.90;;;5.23;;
13683;SDS011;6914;53.552;9.908;2023-07-13T06:36:05;15.83;;;6.37;;
13683;SDS011;6914;53.552;9.908;2023-07-13T06:38:33;14.60;;;5.80;;
13683;SDS011;6914;53.552;9.908;2023-07-13T06:41:00;15.10;;;5.47;;
13683;SDS011;6914;53.552;9.908;2023-07-13T06:43:27;18.07;;;4.90;;
13683;SDS011;6914;53.552;9.908;2023-07-13T06:45:55;12.07;;;5.43;;
13683;SDS011;6914;53.552;9.908;2023-07-13T06:48:22;9.87;;;5.00;;
13683;SDS011;6914;53.552;9.908;2023-07-13T06:50:51;10.00;;;5.47;;
13683;SDS011;6914;53.552;9.908;2023-07-13T06:53:18;19.33;;;5.10;;
13683;SDS011;6914;53.552;9.908;2023-07-13T06:55:46;11.03;;;5.07;;
13683;SDS011;6914;53.552;9.908;2023-07-13T06:58:14;16.50;;;4.37;;
13683;SDS011;6914;53.552;9.908;2023-07-13T07:00:41;8.23;;;4.50;;
13683;SDS011;6914;53.552;9.908;2023-07-13T07:03:09;12.43;;;4.83;;
13683;SDS011;6914;53.552;9.908;2023-07-13T07:05:36;15.60;;;5.57;;
13683;SDS011;6914;53.552;9.908;2023-07-13T07:08:04;13.33;;;4.73;;
13683;SDS011;6914;53.552;9.908;2023-07-13T07:10:33;12.47;;;4.70;;
13683;SDS011;6914;53.552;9.908;2023-07-13T07:13:00;14.53;;;4.73;;
13683;SDS011;6914;53.552;9.908;2023-07-13T07:15:27;15.00;;;4.60;;
13683;SDS011;6914;53.552;9.908;2023-07-13T07:17:54;8.27;;;4.37;;
13683;SDS011;6914;53.552;9.908;2023-07-13T07:20:21;12.00;;;4.77;;
13683;SDS011;6914;53.552;9.908;2023-07-13T07:22:49;16.17;;;4.43;;
13683;SDS011;6914;53.552;9.908;2023-07-13T07:25:17;11.70;;;4.00;;
13683;SDS011;6914;53.552;9.908;2023-07-13T07:27:45;18.40;;;4.87;;
13683;SDS011;6914;53.552;9.908;2023-07-13T07:30:12;18.87;;;5.00;;
13683;SDS011;6914;53.552;9.908;2023-07-13T07:32:40;12.20;;;3.83;;
13683;SDS011;6914;53.552;9.908;2023-07-13T07:35:09;20.80;;;4.53;;
13683;SDS011;6914;53.552;9.908;2023-07-13T07:37:36;10.10;;;3.43;;
13683;SDS011;6914;53.552;9.908;2023-07-13T07:40:03;10.87;;;3.80;;
13683;SDS011;6914;53.552;9.908;2023-07-13T07:42:32;22.00;;;4.50;;
13683;SDS011;6914;53.552;9.908;2023-07-13T07:44:59;14.40;;;4.30;;
13683;SDS011;6914;53.552;9.908;2023-07-13T07:47:27;14.40;;;4.40;;
13683;SDS011;6914;53.552;9.908;2023-07-13T07:49:54;13.40;;;4.80;;
13683;SDS011;6914;53.552;9.908;2023-07-13T07:52:21;14.53;;;4.60;;
13683;SDS011;6914;53.552;9.908;2023-07-13T07:54:48;11.70;;;3.97;;
13683;SDS011;6914;53.552;9.908;2023-07-13T07:57:16;16.33;;;4.50;;
13683;SDS011;6914;53.552;9.908;2023-07-13T07:59:44;10.50;;;3.87;;
13683;SDS011;6914;53.552;9.908;2023-07-13T08:02:11;17.03;;;4.10;;
13683;SDS011;6914;53.552;9.908;2023-07-13T08:04:38;7.43;;;3.33;;
13683;SDS011;6914;53.552;9.908;2023-07-13T08:07:06;14.47;;;4.73;;
13683;SDS011;6914;53.552;9.908;2023-07-13T08:09:33;11.43;;;3.60;;
13683;SDS011;6914;53.552;9.908;2023-07-13T08:12:00;12.53;;;3.90;;
13683;SDS011;6914;53.552;9.908;2023-07-13T08:14:28;18.90;;;4.50;;
13683;SDS011;6914;53.552;9.908;2023-07-13T08:16:56;9.30;;;3.50;;
13683;SDS011;6914;53.552;9.908;2023-07-13T08:19:23;9.63;;;4.33;;
13683;SDS011;6914;53.552;9.908;2023-07-13T08:21:50;9.00;;;3.70;;
13683;SDS011;6914;53.552;9.908;2023-07-13T08:24:17;15.33;;;3.90;;
13683;SDS011;6914;53.552;9.908;2023-07-13T08:26:45;8.77;;;3.77;;
13683;SDS011;6914;53.552;9.908;2023-07-13T08:29:12;11.60;;;3.80;;
13683;SDS011;6914;53.552;9.908;2023-07-13T08:31:39;4.23;;;3.63;;
13683;SDS011;6914;53.552;9.908;2023-07-13T08:34:08;12.03;;;3.60;;
13683;SDS011;6914;53.552;9.908;2023-07-13T08:36:36;11.73;;;3.50;;
13683;SDS011;6914;53.552;9.908;2023-07-13T08:39:03;9.00;;;3.17;;
13683;SDS011;6914;53.552;9.908;2023-07-13T08:41:31;11.43;;;3.90;;
13683;SDS011;6914;53.552;9.908;2023-07-13T08:43:59;13.70;;;3.40;;
13683;SDS011;6914;53.552;9.908;2023-07-13T08:46:30;6.57;;;3.43;;
13683;SDS011;6914;53.552;9.908;2023-07-13T08:48:59;14.53;;;3.50;;
13683;SDS011;6914;53.552;9.908;2023-07-13T08:51:31;15.50;;;4.67;;
13683;SDS011;6914;53.552;9.908;2023-07-13T08:54:00;4.03;;;2.70;;
13683;SDS011;6914;53.552;9.908;2023-07-13T08:56:29;13.40;;;4.37;;
13683;SDS011;6914;53.552;9.908;2023-07-13T08:58:57;8.57;;;2.93;;
13683;SDS011;6914;53.552;9.908;2023-07-13T09:01:27;12.50;;;3.27;;
13683;SDS011;6914;53.552;9.908;2023-07-13T09:03:56;9.47;;;2.57;;
13683;SDS011;6914;53.552;9.908;2023-07-13T09:06:27;7.00;;;2.40;;
13683;SDS011;6914;53.552;9.908;2023-07-13T09:09:00;4.73;;;2.80;;
13683;SDS011;6914;53.552;9.908;2023-07-13T09:11:37;7.60;;;3.30;;
13683;SDS011;6914;53.552;9.908;2023-07-13T09:14:15;16.93;;;3.10;;
13683;SDS011;6914;53.552;9.908;2023-07-13T09:16:46;10.33;;;3.37;;
13683;SDS011;6914;53.552;9.908;2023-07-13T09:19:17;6.07;;;2.83;;
13683;SDS011;6914;53.552;9.908;2023-07-13T09:21:47;14.67;;;2.40;;
13683;SDS011;6914;53.552;9.908;2023-07-13T09:24:26;26.43;;;3.00;;
13683;SDS011;6914;53.552;9.908;2023-07-13T09:26:55;6.37;;;2.97;;
13683;SDS011;6914;53.552;9.908;2023-07-13T09:29:23;11.93;;;3.50;;
13683;SDS011;6914;53.552;9.908;2023-07-13T09:31:54;11.23;;;2.87;;
13683;SDS011;6914;53.552;9.908;2023-07-13T09:34:22;10.23;;;3.07;;
13683;SDS011;6914;53.552;9.908;2023-07-13T09:36:49;6.30;;;2.60;;
13683;SDS011;6914;53.552;9.908;2023-07-13T09:39:19;2.97;;;2.70;;
13683;SDS011;6914;53.552;9.908;2023-07-13T09:41:51;13.93;;;3.43;;
13683;SDS011;6914;53.552;9.908;2023-07-13T09:44:27;10.13;;;2.93;;
13683;SDS011;6914;53.552;9.908;2023-07-13T09:46:56;11.67;;;3.00;;
13683;SDS011;6914;53.552;9.908;2023-07-13T09:49:24;10.73;;;3.23;;
13683;SDS011;6914;53.552;9.908;2023-07-13T09:51:57;11.33;;;2.37;;
13683;SDS011;6914;53.552;9.908;2023-07-13T09:54:25;9.33;;;2.83;;
13683;SDS011;6914;53.552;9.908;2023-07-13T09:56:56;16.57;;;3.13;;
13683;SDS011;6914;53.552;9.908;2023-07-13T09:59:26;6.23;;;3.13;;
13683;SDS011;6914;53.552;9.908;2023-07-13T10:01:53;10.37;;;3.97;;
13683;SDS011;6914;53.552;9.908;2023-07-13T10:04:27;7.30;;;3.07;;
13683;SDS011;6914;53.552;9.908;2023-07-13T10:07:04;9.60;;;3.30;;
13683;SDS011;6914;53.552;9.908;2023-07-13T10:09:32;4.40;;;2.50;;
13683;SDS011;6914;53.552;9.908;2023-07-13T10:12:00;7.70;;;2.93;;
13683;SDS011;6914;53.552;9.908;2023-07-13T10:14:27;4.07;;;2.47;;
13683;SDS011;6914;53.552;9.908;2023-07-13T10:16:58;10.33;;;2.27;;
13683;SDS011;6914;53.552;9.908;2023-07-13T10:19:27;9.50;;;2.70;;
13683;SDS011;6914;53.552;9.908;2023-07-13T10:21:58;7.53;;;3.20;;
13683;SDS011;6914;53.552;9.908;2023-07-13T10:24:27;5.20;;;2.23;;
13683;SDS011;6914;53.552;9.908;2023-07-13T10:26:57;4.93;;;2.10;;
13683;SDS011;6914;53.552;9.908;2023-07-13T10:29:27;2.63;;;2.13;;
13683;SDS011;6914;53.552;9.908;2023-07-13T10:31:54;5.77;;;2.47;;
13683;SDS011;6914;53.552;9.908;2023-07-13T10:34:22;3.40;;;1.53;;
13683;SDS011;6914;53.552;9.908;2023-07-13T10:36:51;2.43;;;1.83;;
13683;SDS011;6914;53.552;9.908;2023-07-13T10:39:19;2.63;;;2.37;;
13683;SDS011;6914;53.552;9.908;2023-07-13T10:41:48;2.40;;;1.83;;
13683;SDS011;6914;53.552;9.908;2023-07-13T10:44:18;11.30;;;2.10;;
13683;SDS011;6914;53.552;9.908;2023-07-13T10:46:51;7.10;;;2.57;;
13683;SDS011;6914;53.552;9.908;2023-07-13T10:49:19;15.10;;;2.27;;
13683;SDS011;6914;53.552;9.908;2023-07-13T10:51:47;12.10;;;2.80;;
13683;SDS011;6914;53.552;9.908;2023-07-13T10:54:17;6.77;;;2.20;;
13683;SDS011;6914;53.552;9.908;2023-07-13T10:56:48;5.47;;;2.00;;
13683;SDS011;6914;53.552;9.908;2023-07-13T10:59:16;3.00;;;1.90;;
13683;SDS011;6914;53.552;9.908;2023-07-13T11:01:54;9.30;;;2.20;;
13683;SDS011;6914;53.552;9.908;2023-07-13T11:04:22;6.53;;;1.70;;
13683;SDS011;6914;53.552;9.908;2023-07-13T11:06:50;10.43;;;2.47;;
13683;SDS011;6914;53.552;9.908;2023-07-13T11:09:30;3.50;;;2.00;;
13683;SDS011;6914;53.552;9.908;2023-07-13T11:11:58;3.07;;;1.60;;
13683;SDS011;6914;53.552;9.908;2023-07-13T11:14:27;1.97;;;1.80;;
13683;SDS011;6914;53.552;9.908;2023-07-13T11:16:55;2.37;;;1.50;;
13683;SDS011;6914;53.552;9.908;2023-07-13T11:22:13;6.20;;;2.33;;
13683;SDS011;6914;53.552;9.908;2023-07-13T11:24:51;8.43;;;1.77;;
13683;SDS011;6914;53.552;9.908;2023-07-13T11:27:21;2.20;;;1.37;;
13683;SDS011;6914;53.552;9.908;2023-07-13T11:29:49;2.43;;;1.60;;
13683;SDS011;6914;53.552;9.908;2023-07-13T11:32:24;2.27;;;1.20;;
13683;SDS011;6914;53.552;9.908;2023-07-13T11:34:52;4.10;;;2.43;;
13683;SDS011;6914;53.552;9.908;2023-07-13T11:37:20;1.53;;;1.20;;
13683;SDS011;6914;53.552;9.908;2023-07-13T11:39:49;4.53;;;2.10;;
13683;SDS011;6914;53.552;9.908;2023-07-13T11:42:18;5.83;;;1.93;;
13683;SDS011;6914;53.552;9.908;2023-07-13T11:44:46;3.10;;;1.80;;
13683;SDS011;6914;53.552;9.908;2023-07-13T11:47:14;1.97;;;1.60;;
13683;SDS011;6914;53.552;9.908;2023-07-13T11:49:48;2.50;;;1.70;;
13683;SDS011;6914;53.552;9.908;2023-07-13T11:52:17;2.07;;;1.50;;
13683;SDS011;6914;53.552;9.908;2023-07-13T11:54:46;2.70;;;2.07;;
13683;SDS011;6914;53.552;9.908;2023-07-13T11:57:18;14.10;;;3.27;;
13683;SDS011;6914;53.552;9.908;2023-07-13T11:59:48;6.97;;;2.53;;
13683;SDS011;6914;53.552;9.908;2023-07-13T12:02:17;2.63;;;1.90;;
13683;SDS011;6914;53.552;9.908;2023-07-13T12:04:49;6.17;;;2.10;;
13683;SDS011;6914;53.552;9.908;2023-07-13T12:07:18;6.60;;;3.03;;
13683;SDS011;6914;53.552;9.908;2023-07-13T12:09:45;2.60;;;1.97;;
13683;SDS011;6914;53.552;9.908;2023-07-13T12:12:17;6.73;;;2.20;;
13683;SDS011;6914;53.552;9.908;2023-07-13T12:14:44;8.23;;;2.10;;
13683;SDS011;6914;53.552;9.908;2023-07-13T12:17:15;10.60;;;2.97;;
13683;SDS011;6914;53.552;9.908;2023-07-13T12:19:43;9.87;;;2.50;;
13683;SDS011;6914;53.552;9.908;2023-07-13T12:22:13;8.37;;;2.40;;
13683;SDS011;6914;53.552;9.908;2023-07-13T12:24:41;18.67;;;3.43;;
13683;SDS011;6914;53.552;9.908;2023-07-13T12:27:15;8.10;;;2.80;;
13683;SDS011;6914;53.552;9.908;2023-07-13T12:29:49;7.70;;;2.30;;
13683;SDS011;6914;53.552;9.908;2023-07-13T12:32:18;7.17;;;2.50;;
13683;SDS011;6914;53.552;9.908;2023-07-13T12:34:51;4.13;;;2.20;;
13683;SDS011;6914;53.552;9.908;2023-07-13T12:37:20;6.60;;;2.50;;
13683;SDS011;6914;53.552;9.908;2023-07-13T12:39:47;3.47;;;2.27;;
13683;SDS011;6914;53.552;9.908;2023-07-13T12:42:19;4.20;;;2.80;;
13683;SDS011;6914;53.552;9.908;2023-07-13T12:44:48;4.80;;;2.50;;
13683;SDS011;6914;53.552;9.908;2023-07-13T12:47:16;3.10;;;2.53;;
13683;SDS011;6914;53.552;9.908;2023-07-13T12:49:48;2.83;;;2.40;;
13683;SDS011;6914;53.552;9.908;2023-07-13T12:52:16;4.90;;;2.47;;
13683;SDS011;6914;53.552;9.908;2023-07-13T12:54:53;4.33;;;2.60;;
13683;SDS011;6914;53.552;9.908;2023-07-13T12:57:22;9.90;;;2.40;;
13683;SDS011;6914;53.552;9.908;2023-07-13T12:59:52;3.83;;;2.40;;
13683;SDS011;6914;53.552;9.908;2023-07-13T13:02:22;3.03;;;2.10;;
13683;SDS011;6914;53.552;9.908;2023-07-13T13:04:54;8.53;;;3.00;;
13683;SDS011;6914;53.552;9.908;2023-07-13T13:07:22;3.50;;;2.87;;
13683;SDS011;6914;53.552;9.908;2023-07-13T13:09:50;3.33;;;2.00;;
13683;SDS011;6914;53.552;9.908;2023-07-13T13:12:20;2.20;;;2.10;;
13683;SDS011;6914;53.552;9.908;2023-07-13T13:14:49;3.80;;;2.00;;
13683;SDS011;6914;53.552;9.908;2023-07-13T13:17:18;3.47;;;2.23;;
13683;SDS011;6914;53.552;9.908;2023-07-13T13:19:46;3.23;;;2.67;;
13683;SDS011;6914;53.552;9.908;2023-07-13T13:22:15;3.30;;;2.60;;
13683;SDS011;6914;53.552;9.908;2023-07-13T13:24:43;5.50;;;2.20;;
13683;SDS011;6914;53.552;9.908;2023-07-13T13:27:13;2.20;;;1.93;;
13683;SDS011;6914;53.552;9.908;2023-07-13T13:29:44;3.70;;;2.30;;
13683;SDS011;6914;53.552;9.908;2023-07-13T13:32:12;3.57;;;2.37;;
13683;SDS011;6914;53.552;9.908;2023-07-13T13:34:39;2.47;;;2.27;;
13683;SDS011;6914;53.552;9.908;2023-07-13T13:37:10;3.30;;;2.50;;
13683;SDS011;6914;53.552;9.908;2023-07-13T13:39:43;4.20;;;2.47;;
13683;SDS011;6914;53.552;9.908;2023-07-13T13:42:11;5.07;;;2.23;;
13683;SDS011;6914;53.552;9.908;2023-07-13T13:44:39;2.13;;;1.93;;
13683;SDS011;6914;53.552;9.908;2023-07-13T13:47:09;2.23;;;2.03;;
13683;SDS011;6914;53.552;9.908;2023-07-13T13:49:44;2.10;;;2.00;;
13683;SDS011;6914;53.552;9.908;2023-07-13T13:52:12;3.40;;;2.10;;
13683;SDS011;6914;53.552;9.908;2023-07-13T13:54:40;3.83;;;2.23;;
13683;SDS011;6914;53.552;9.908;2023-07-13T13:57:08;5.67;;;2.03;;
13683;SDS011;6914;53.552;9.908;2023-07-13T13:59:37;3.33;;;2.73;;
13683;SDS011;6914;53.552;9.908;2023-07-13T14:02:08;2.73;;;2.30;;
13683;SDS011;6914;53.552;9.908;2023-07-13T14:04:42;3.40;;;2.77;;
13683;SDS011;6914;53.552;9.908;2023-07-13T14:07:10;2.33;;;2.23;;
13683;SDS011;6914;53.552;9.908;2023-07-13T14:09:37;2.40;;;2.20;;
13683;SDS011;6914;53.552;9.908;2023-07-13T14:12:04;2.63;;;1.83;;
13683;SDS011;6914;53.552;9.908;2023-07-13T14:14:32;2.90;;;2.70;;
13683;SDS011;6914;53.552;9.908;2023-07-13T14:17:00;3.97;;;2.23;;
13683;SDS011;6914;53.552;9.908;2023-07-13T14:19:28;4.40;;;2.00;;
13683;SDS011;6914;53.552;9.908;2023-07-13T14:21:55;3.73;;;2.43;;
13683;SDS011;6914;53.552;9.908;2023-07-13T14:24:23;6.17;;;2.33;;
13683;SDS011;6914;53.552;9.908;2023-07-13T14:26:50;2.40;;;2.20;;
13683;SDS011;6914;53.552;9.908;2023-07-13T14:29:17;3.40;;;2.30;;
13683;SDS011;6914;53.552;9.908;2023-07-13T14:31:47;2.17;;;2.07;;
13683;SDS011;6914;53.552;9.908;2023-07-13T14:34:14;11.07;;;2.47;;
13683;SDS011;6914;53.552;9.908;2023-07-13T14:36:43;2.23;;;1.70;;
13683;SDS011;6914;53.552;9.908;2023-07-13T14:39:12;4.50;;;2.40;;
13683;SDS011;6914;53.552;9.908;2023-07-13T14:41:40;2.43;;;2.33;;
13683;SDS011;6914;53.552;9.908;2023-07-13T14:44:11;2.57;;;2.37;;
13683;SDS011;6914;53.552;9.908;2023-07-13T14:46:38;2.47;;;2.27;;
13683;SDS011;6914;53.552;9.908;2023-07-13T14:49:06;3.50;;;2.33;;
13683;SDS011;6914;53.552;9.908;2023-07-13T14:51:37;3.10;;;2.90;;
13683;SDS011;6914;53.552;9.908;2023-07-13T14:54:07;4.47;;;3.40;;
13683;SDS011;6914;53.552;9.908;2023-07-13T14:56:36;10.30;;;3.17;;
13683;SDS011;6914;53.552;9.908;2023-07-13T14:59:03;5.73;;;2.93;;
13683;SDS011;6914;53.552;9.908;2023-07-13T15:01:32;4.57;;;3.20;;
13683;SDS011;6914;53.552;9.908;2023-07-13T15:03:59;3.50;;;2.93;;
13683;SDS011;6914;53.552;9.908;2023-07-13T15:06:27;5.20;;;2.83;;
13683;SDS011;6914;53.552;9.908;2023-07-13T15:08:54;3.27;;;2.97;;